Impacts TAF Board
For situational awareness. Not to be used for flight planning purposes.
IDs:

KCLT - Charlotte/Douglas In, NC, US

Issued at 0354 UTC 12 Dec 2018
Updated at 0357 UTC 12 Dec 2018
Potential Impact None Slight Moderate High
Time0352Z 12/04Z 12/05Z 12/06Z 12/07Z 12/08Z 12/09Z 12/10Z 12/11Z 12/12Z 12/13Z 12/14Z 12/15Z 12/16Z>>
Type OBS PRVL PRVL PRVL PRVL PRVL
  [TEMP]  
PRVL
  [TEMP]  
PRVL
  [TEMP]  
PRVL
  [TEMP]  
PRVL PRVL PRVL PRVL PRVL
VIS 10 >6 >6 >6 >6 >6
  [6]  
>6
  [6]  
>6
  [6]  
>6
  [6]  
>6 >6 >6 >6 >6
CIG -- -- -- -- -- --
  [--]  
--
  [--]  
--
  [--]  
--
  [--]  
-- -- 200 200 200
Cover FEW FEW FEW FEW FEW FEW
  [FEW]  
FEW
  [FEW]  
FEW
  [FEW]  
FEW
  [FEW]  
FEW FEW BKN BKN BKN
FltCat VFR VFR VFR VFR VFR VFR
  [VFR]  
VFR
  [VFR]  
VFR
  [VFR]  
VFR
  [VFR]  
VFR VFR VFR VFR VFR
WX -- -- -- -- -- --
  [BR]  
--
  [BR]  
--
  [BR]  
--
  [BR]  
-- -- -- -- --
WDir 190 VRB VRB VRB VRB VRB
[VRB]
VRB
[VRB]
VRB
[VRB]
VRB
[VRB]
VRB VRB 190 190 190
WSpd 3 2 2 2 2 2
  [2]  
2
  [2]  
2
  [2]  
2
  [2]  
2 2 3 3 3
WGst -- -- -- -- -- --
  [--]  
--
  [--]  
--
  [--]  
--
  [--]  
-- -- -- -- --
Raw TAF
KCLT 120354Z 1204/1306 VRB02KT P6SM FEW250
  TEMPO 1208/1212 6SM BR
  FM121400 19003KT P6SM BKN200


Raw METAR
KCLT 120352Z 19003KT 10SM FEW250 02/M02 A3015 RMK AO2 SLP212 T00221022
KCLT 120252Z 00000KT 10SM CLR 04/M03 A3016 RMK AO2 SLP215 T00391033 50001
KCLT 120152Z 24003KT 10SM CLR 05/M04 A3016 RMK AO2 SLP217 T00501039
KCLT 120052Z 24006KT 10SM CLR 05/M04 A3016 RMK AO2 SLP218 T00501039

METAR Board
Radar Display
Forecast Discussion
For situational awareness. Not to be used for flight planning purposes.